createdAt,value
2019-04-10T00:01:23.670Z,50.67
2019-04-10T00:03:53.333Z,53.10
2019-04-10T00:06:23.644Z,57.03
2019-04-10T00:08:53.007Z,51.42
2019-04-10T00:11:22.799Z,60.75
2019-04-10T00:13:53.182Z,64.10
2019-04-10T00:16:22.495Z,81.78
2019-04-10T00:18:51.655Z,82.17
2019-04-10T00:21:21.018Z,83.22
2019-04-10T00:23:51.292Z,82.02
2019-04-10T00:26:21.562Z,85.60
2019-04-10T00:28:51.928Z,86.73
2019-04-10T00:31:22.784Z,100.00
2019-04-10T00:33:52.081Z,96.05
2019-04-10T00:36:21.461Z,101.72
2019-04-10T00:38:50.661Z,106.92
2019-04-10T00:41:19.820Z,109.30
2019-04-10T00:43:49.010Z,97.95
2019-04-10T00:46:18.161Z,117.97
2019-04-10T00:48:48.142Z,119.85
2019-04-10T00:51:17.387Z,99.58
2019-04-10T00:53:47.507Z,116.47
2019-04-10T00:56:16.705Z,108.90
2019-04-10T00:58:45.897Z,111.12
2019-04-10T01:01:15.988Z,100.55
2019-04-10T01:03:48.136Z,129.93
2019-04-10T01:06:16.744Z,126.70
2019-04-10T01:08:45.900Z,116.80
2019-04-10T01:11:15.254Z,114.57
2019-04-10T01:13:45.379Z,132.97
2019-04-10T01:16:16.259Z,136.10
2019-04-10T01:18:45.781Z,135.68
2019-04-10T01:21:14.998Z,137.20
2019-04-10T01:23:44.940Z,133.87
2019-04-10T01:26:14.947Z,120.02
2019-04-10T01:28:45.120Z,119.40
2019-04-10T01:31:15.094Z,114.77
2019-04-10T01:33:45.927Z,109.03
2019-04-10T01:36:15.411Z,120.82
2019-04-10T01:38:46.246Z,106.65
2019-04-10T01:41:15.526Z,122.67
2019-04-10T01:43:44.715Z,122.85
2019-04-10T01:46:13.907Z,109.90
2019-04-10T01:48:44.023Z,108.75
2019-04-10T01:51:13.331Z,115.77
2019-04-10T01:53:42.477Z,103.53
2019-04-10T01:56:23.967Z,102.50
2019-04-10T01:58:44.158Z,110.92
2019-04-10T02:01:26.221Z,106.92
2019-04-10T02:03:55.325Z,114.55
2019-04-10T02:06:25.317Z,116.12
2019-04-10T02:08:54.448Z,121.70
2019-04-10T02:11:24.024Z,110.00
2019-04-10T02:13:54.006Z,130.52
2019-04-10T02:16:24.617Z,113.72
2019-04-10T02:18:54.168Z,143.70
2019-04-10T02:21:23.492Z,125.22
2019-04-10T02:23:52.605Z,139.40
2019-04-10T02:26:21.873Z,127.25
2019-04-10T02:28:51.393Z,127.40
2019-04-10T02:31:21.557Z,136.40
2019-04-10T02:33:51.910Z,138.95
2019-04-10T02:36:21.550Z,141.15
2019-04-10T02:39:01.944Z,140.82
2019-04-10T02:41:21.803Z,137.03
2019-04-10T02:43:51.425Z,121.05
2019-04-10T02:46:21.973Z,126.15
2019-04-10T02:48:52.035Z,137.70
2019-04-10T02:51:22.889Z,133.70
2019-04-10T02:53:53.830Z,141.37
2019-04-10T02:56:25.175Z,131.10
2019-04-10T02:58:54.419Z,127.67
2019-04-10T03:01:25.084Z,128.82
2019-04-10T03:03:55.546Z,133.32
2019-04-10T03:06:24.873Z,131.15
2019-04-10T03:09:07.825Z,126.30
2019-04-10T03:11:26.480Z,134.70
2019-04-10T03:13:59.112Z,151.60
2019-04-10T03:16:29.110Z,151.93
2019-04-10T03:18:58.265Z,142.77
2019-04-10T03:21:27.446Z,145.90
2019-04-10T03:23:56.732Z,142.03
2019-04-10T03:26:25.915Z,133.95
2019-04-10T03:28:55.649Z,139.57
2019-04-10T03:31:27.161Z,118.57
2019-04-10T03:34:03.372Z,130.65
2019-04-10T03:36:40.095Z,115.32
2019-04-10T03:39:10.783Z,111.42
2019-04-10T03:41:40.304Z,116.73
2019-04-10T03:44:10.295Z,97.60
2019-04-10T03:46:40.209Z,105.83
2019-04-10T03:49:09.749Z,116.17
2019-04-10T03:51:41.065Z,110.22
2019-04-10T03:54:11.148Z,113.92
2019-04-10T03:56:40.913Z,107.27
2019-04-10T03:59:11.779Z,89.80
2019-04-10T04:01:41.017Z,104.65
2019-04-10T04:04:10.183Z,93.07
2019-04-10T04:06:39.827Z,104.43
2019-04-10T04:09:11.996Z,100.45
2019-04-10T04:11:40.283Z,98.05
2019-04-10T04:14:10.331Z,91.75
2019-04-10T04:16:39.596Z,98.97
2019-04-10T04:19:08.765Z,84.03
2019-04-10T04:21:37.928Z,92.15
2019-04-10T04:24:07.192Z,95.75
2019-04-10T04:26:37.200Z,96.78
2019-04-10T04:29:07.429Z,95.70
2019-04-10T04:31:36.842Z,92.17
2019-04-10T04:34:06.236Z,91.65
2019-04-10T04:36:35.708Z,89.00
2019-04-10T04:39:17.845Z,97.35
2019-04-10T04:41:37.978Z,88.35
2019-04-10T04:44:08.088Z,91.70
2019-04-10T04:46:38.621Z,85.45
2019-04-10T04:49:07.869Z,80.17
2019-04-10T04:51:38.934Z,94.30
2019-04-10T04:54:08.736Z,82.12
2019-04-10T04:56:38.310Z,87.62
2019-04-10T04:59:07.995Z,86.75
2019-04-10T05:01:38.296Z,86.85
2019-04-10T05:04:08.958Z,93.22
2019-04-10T05:06:38.305Z,81.40
2019-04-10T05:09:08.042Z,88.72
2019-04-10T05:11:38.428Z,85.05
2019-04-10T05:14:07.739Z,78.15
2019-04-10T05:16:37.055Z,87.97
2019-04-10T05:19:06.223Z,81.80
2019-04-10T05:21:35.438Z,86.02
2019-04-10T05:24:05.280Z,83.05
2019-04-10T05:26:34.480Z,83.90
2019-04-10T05:29:04.650Z,86.28
2019-04-10T05:31:34.279Z,71.37
2019-04-10T05:34:03.456Z,75.20
2019-04-10T05:36:33.535Z,81.60
2019-04-10T05:39:04.526Z,79.07
2019-04-10T05:41:33.731Z,75.05
2019-04-10T05:44:05.058Z,74.00
2019-04-10T05:46:34.635Z,72.47
2019-04-10T05:49:04.456Z,68.42
2019-04-10T05:51:33.904Z,72.30
2019-04-10T05:54:03.379Z,70.45
2019-04-10T05:56:32.525Z,69.80
2019-04-10T05:59:01.723Z,69.42
2019-04-10T06:01:35.839Z,61.18
2019-04-10T06:04:03.071Z,69.90
2019-04-10T06:06:32.609Z,61.08
2019-04-10T06:09:02.578Z,67.40
2019-04-10T06:11:33.045Z,62.10
2019-04-10T06:14:03.229Z,61.37
2019-04-10T06:16:32.475Z,57.48
2019-04-10T06:19:01.893Z,60.75
2019-04-10T06:21:31.500Z,64.15
2019-04-10T06:24:00.689Z,61.70
2019-04-10T06:26:30.046Z,56.68
2019-04-10T06:28:59.356Z,56.23
2019-04-10T06:31:28.586Z,59.27
2019-04-10T06:33:58.416Z,55.10
2019-04-10T06:36:27.687Z,54.63
2019-04-10T06:38:56.861Z,56.42
2019-04-10T06:41:26.383Z,53.55
2019-04-10T06:43:55.713Z,52.85
2019-04-10T06:46:24.870Z,53.78
2019-04-10T06:48:54.280Z,58.42
2019-04-10T06:51:23.478Z,59.08
2019-04-10T06:54:01.787Z,52.35
2019-04-10T06:56:23.544Z,54.33
2019-04-10T06:58:52.732Z,53.55
2019-04-10T07:01:25.525Z,51.95
2019-04-10T07:04:02.110Z,54.25
2019-04-10T07:06:39.343Z,51.77
2019-04-10T07:08:57.178Z,50.80
2019-04-10T07:11:30.438Z,50.50
2019-04-10T07:13:58.485Z,50.98
2019-04-10T07:16:31.502Z,48.83
2019-04-10T07:19:03.081Z,45.23
2019-04-10T07:21:32.824Z,48.75
2019-04-10T07:24:06.327Z,53.55
2019-04-10T07:26:39.377Z,52.33
2019-04-10T07:29:03.029Z,59.60
2019-04-10T07:31:35.031Z,51.00
2019-04-10T07:34:03.344Z,49.85
2019-04-10T07:36:32.955Z,51.60
2019-04-10T07:39:02.064Z,53.92
2019-04-10T07:41:31.482Z,47.93
2019-04-10T07:44:01.720Z,42.98
2019-04-10T07:46:31.312Z,48.78
2019-04-10T07:49:00.801Z,51.63
2019-04-10T07:51:29.977Z,50.00
2019-04-10T07:53:59.783Z,47.60
2019-04-10T07:56:29.134Z,40.60
2019-04-10T07:58:58.381Z,48.20
2019-04-10T08:01:27.560Z,41.25
2019-04-10T08:03:57.614Z,46.68
2019-04-10T08:06:27.777Z,50.05
2019-04-10T08:08:57.034Z,37.48
2019-04-10T08:11:26.243Z,50.10
2019-04-10T08:13:56.137Z,48.70
2019-04-10T08:16:25.651Z,47.43
2019-04-10T08:18:56.217Z,46.60
2019-04-10T08:21:25.531Z,46.13
2019-04-10T08:23:54.906Z,46.28
2019-04-10T08:26:24.735Z,45.28
2019-04-10T08:28:53.938Z,50.58
2019-04-10T08:31:23.852Z,49.10
2019-04-10T08:33:53.195Z,46.55
2019-04-10T08:36:23.448Z,51.60
2019-04-10T08:38:52.856Z,48.00
2019-04-10T08:41:21.940Z,42.78
2019-04-10T08:43:52.203Z,44.65
2019-04-10T08:46:21.863Z,45.58
2019-04-10T08:48:51.893Z,44.18
2019-04-10T08:51:21.436Z,45.78
2019-04-10T08:53:53.648Z,50.40
2019-04-10T08:56:23.076Z,49.73
2019-04-10T08:58:52.276Z,51.20
2019-04-10T09:01:21.443Z,44.63
2019-04-10T09:03:51.023Z,46.80
2019-04-10T09:06:20.172Z,49.15
2019-04-10T09:08:49.369Z,45.70
2019-04-10T09:11:24.652Z,44.23
2019-04-10T09:13:49.578Z,45.12
2019-04-10T09:16:18.746Z,42.20
2019-04-10T09:18:47.922Z,43.17
2019-04-10T09:21:17.547Z,38.28
2019-04-10T09:23:52.314Z,45.65
2019-04-10T09:26:17.655Z,44.33
2019-04-10T09:28:50.785Z,41.08
2019-04-10T09:31:20.162Z,47.85
2019-04-10T09:33:49.584Z,43.13
2019-04-10T09:36:20.170Z,39.08
2019-04-10T09:38:49.374Z,36.05
2019-04-10T09:41:19.478Z,42.17
2019-04-10T09:43:49.684Z,41.10
2019-04-10T09:46:20.168Z,40.40
2019-04-10T09:48:49.951Z,37.05
2019-04-10T09:51:19.715Z,39.50
2019-04-10T09:53:49.011Z,38.63
2019-04-10T09:56:20.081Z,36.55
2019-04-10T09:58:49.233Z,35.30
2019-04-10T10:01:19.971Z,48.42
2019-04-10T10:03:51.041Z,51.02
2019-04-10T10:06:27.428Z,35.05
2019-04-10T10:08:52.208Z,33.55
2019-04-10T10:11:22.213Z,36.83
2019-04-10T10:13:52.281Z,33.63
2019-04-10T10:16:21.476Z,36.38
2019-04-10T10:18:51.867Z,30.50
2019-04-10T10:21:21.163Z,31.25
2019-04-10T10:23:50.327Z,33.08
2019-04-10T10:26:19.781Z,28.30
2019-04-10T10:28:50.489Z,32.73
2019-04-10T10:31:20.179Z,31.20
2019-04-10T10:33:50.114Z,29.77
2019-04-10T10:36:19.962Z,38.67
2019-04-10T10:39:01.741Z,31.20
2019-04-10T10:41:20.483Z,34.57
2019-04-10T10:43:50.833Z,35.83
2019-04-10T10:46:20.106Z,29.95
2019-04-10T10:48:49.250Z,36.17
2019-04-10T10:51:18.456Z,28.17
2019-04-10T10:53:48.275Z,34.15
2019-04-10T10:56:18.236Z,29.70
2019-04-10T10:58:48.533Z,40.27
2019-04-10T11:01:18.020Z,25.25
2019-04-10T11:03:47.310Z,35.70
2019-04-10T11:06:17.736Z,30.68
2019-04-10T11:08:47.771Z,29.52
2019-04-10T11:11:17.167Z,32.42
2019-04-10T11:13:46.931Z,33.30
2019-04-10T11:16:16.997Z,28.23
2019-04-10T11:18:46.887Z,25.80
2019-04-10T11:21:16.848Z,27.30
2019-04-10T11:23:46.871Z,28.25
2019-04-10T11:26:20.543Z,27.70
2019-04-10T11:28:47.933Z,29.87
2019-04-10T11:31:17.520Z,33.80
2019-04-10T11:33:50.241Z,26.70
2019-04-10T11:36:19.880Z,30.10
2019-04-10T11:38:49.413Z,25.80
2019-04-10T11:41:19.356Z,29.63
2019-04-10T11:43:50.126Z,24.90
2019-04-10T11:46:20.143Z,24.57
2019-04-10T11:48:49.375Z,22.50
2019-04-10T11:51:18.635Z,28.93
2019-04-10T11:53:51.599Z,29.77
2019-04-10T11:56:19.334Z,21.93
2019-04-10T11:58:55.482Z,24.77
2019-04-10T12:01:22.554Z,26.50
2019-04-10T12:03:54.341Z,27.33
2019-04-10T12:06:25.081Z,22.30
2019-04-10T12:09:13.635Z,27.97
2019-04-10T12:11:24.692Z,25.63
2019-04-10T12:13:54.582Z,26.43
2019-04-10T12:16:25.086Z,26.50
2019-04-10T12:18:55.872Z,26.37
2019-04-10T12:21:26.230Z,26.60
2019-04-10T12:23:55.616Z,26.90
2019-04-10T12:26:25.519Z,31.37
2019-04-10T12:28:54.676Z,28.80
2019-04-10T12:31:24.034Z,30.80
2019-04-10T12:33:53.198Z,24.83
2019-04-10T12:36:24.655Z,26.17
2019-04-10T12:38:54.086Z,25.00
2019-04-10T12:41:23.535Z,27.07
2019-04-10T12:43:53.479Z,29.10
2019-04-10T12:46:22.713Z,21.97
2019-04-10T12:48:52.704Z,26.70
2019-04-10T12:51:22.028Z,23.37
2019-04-10T12:53:51.983Z,21.50
2019-04-10T12:56:22.167Z,21.57
2019-04-10T12:58:51.453Z,24.57
2019-04-10T13:01:20.745Z,26.30
2019-04-10T13:03:49.895Z,26.33
2019-04-10T13:06:20.078Z,20.30
2019-04-10T13:08:57.791Z,26.90
2019-04-10T13:11:20.657Z,24.57
2019-04-10T13:13:51.137Z,23.57
2019-04-10T13:16:20.898Z,26.15
2019-04-10T13:18:50.162Z,24.80
2019-04-10T13:21:20.158Z,26.33
2019-04-10T13:23:49.631Z,23.87
2019-04-10T13:26:19.001Z,25.40
2019-04-10T13:28:48.491Z,28.97
2019-04-10T13:31:19.247Z,22.87
2019-04-10T13:33:49.007Z,22.73
2019-04-10T13:36:18.167Z,23.43
2019-04-10T13:38:48.469Z,23.50
2019-04-10T13:41:18.606Z,23.63
2019-04-10T13:43:48.142Z,22.83
2019-04-10T13:46:18.464Z,25.10
2019-04-10T13:48:49.359Z,24.50
2019-04-10T13:51:19.309Z,24.97
2019-04-10T13:53:48.768Z,25.65
2019-04-10T13:56:19.107Z,23.67
2019-04-10T13:58:48.785Z,23.37
2019-04-10T14:01:25.285Z,23.83
2019-04-10T14:03:54.819Z,26.73
2019-04-10T14:06:23.997Z,27.50
2019-04-10T14:09:08.158Z,19.13
2019-04-10T14:11:24.895Z,25.40
2019-04-10T14:13:55.730Z,21.13
2019-04-10T14:16:26.676Z,24.50
2019-04-10T14:18:57.014Z,33.50
2019-04-10T14:21:29.065Z,21.23
2019-04-10T14:23:58.475Z,25.25
2019-04-10T14:26:43.925Z,25.53
2019-04-10T14:29:12.568Z,24.63
2019-04-10T14:31:46.912Z,22.67
2019-04-10T14:34:18.433Z,23.23
2019-04-10T14:36:48.467Z,21.00
2019-04-10T14:39:20.900Z,24.73
2019-04-10T14:41:49.787Z,21.43
2019-04-10T14:44:20.722Z,22.30
2019-04-10T14:46:49.899Z,24.53
2019-04-10T14:49:20.951Z,25.57
2019-04-10T14:51:50.107Z,25.40
2019-04-10T14:54:19.612Z,25.93
2019-04-10T14:56:48.836Z,23.03
2019-04-10T14:59:18.005Z,27.93
2019-04-10T15:01:48.541Z,32.28
2019-04-10T15:04:17.939Z,22.97
2019-04-10T15:06:47.985Z,24.17
2019-04-10T15:09:25.339Z,23.37
2019-04-10T15:11:51.517Z,21.87
2019-04-10T15:14:21.606Z,23.65
2019-04-10T15:16:55.456Z,21.07
2019-04-10T15:19:22.630Z,29.60
2019-04-10T15:21:53.662Z,19.03
2019-04-10T15:24:23.785Z,24.18
2019-04-10T15:26:54.067Z,20.73
2019-04-10T15:29:24.713Z,24.30
2019-04-10T15:31:54.170Z,21.00
2019-04-10T15:34:23.368Z,25.87
2019-04-10T15:36:52.886Z,22.42
2019-04-10T15:39:31.430Z,23.73
2019-04-10T15:41:52.978Z,25.63
2019-04-10T15:44:22.150Z,22.23
2019-04-10T15:46:51.388Z,29.10
2019-04-10T15:49:20.517Z,21.90
2019-04-10T15:51:49.833Z,28.30
2019-04-10T15:54:19.012Z,26.83
2019-04-10T15:56:48.170Z,21.47
2019-04-10T15:59:17.387Z,22.50
2019-04-10T16:01:47.636Z,30.53
2019-04-10T16:04:17.148Z,33.00
2019-04-10T16:06:47.397Z,30.35
2019-04-10T16:09:16.971Z,30.13
2019-04-10T16:12:06.099Z,29.45
2019-04-10T16:14:35.908Z,25.80
2019-04-10T16:17:19.425Z,27.07
2019-04-10T16:20:02.098Z,30.27
2019-04-10T16:22:37.475Z,29.57
2019-04-10T16:25:13.767Z,25.20
2019-04-10T16:27:45.274Z,27.10
2019-04-10T16:30:18.623Z,25.60
2019-04-10T16:32:50.091Z,29.02
2019-04-10T16:35:19.615Z,28.60
2019-04-10T16:37:49.513Z,30.20
2019-04-10T16:40:19.149Z,25.20
2019-04-10T16:42:48.778Z,24.63
2019-04-10T16:45:19.516Z,25.50
2019-04-10T16:47:48.789Z,27.73
2019-04-10T16:50:17.997Z,26.10
2019-04-10T16:52:47.439Z,28.90
2019-04-10T16:57:49.433Z,23.67
2019-04-10T17:00:20.582Z,25.73
2019-04-10T17:02:50.643Z,23.53
2019-04-10T17:05:20.645Z,26.20
2019-04-10T17:07:50.046Z,33.70
2019-04-10T17:10:24.358Z,25.15
2019-04-10T17:12:52.327Z,34.83
2019-04-10T17:15:21.805Z,24.53
2019-04-10T17:17:51.253Z,27.30
2019-04-10T17:20:20.729Z,28.40
2019-04-10T17:22:50.208Z,31.67
2019-04-10T17:25:20.119Z,27.80
2019-04-10T17:27:50.039Z,26.80
2019-04-10T17:30:20.258Z,35.77
2019-04-10T17:32:49.456Z,27.27
2019-04-10T17:35:19.297Z,29.20
2019-04-10T17:37:49.944Z,30.23
2019-04-10T17:40:30.132Z,28.60
2019-04-10T17:42:52.745Z,39.83
2019-04-10T17:45:22.982Z,34.60
2019-04-10T17:47:54.626Z,33.90
2019-04-10T17:50:24.653Z,25.40
2019-04-10T17:52:54.124Z,24.93
2019-04-10T17:55:23.346Z,28.80
2019-04-10T17:57:54.511Z,30.82
2019-04-10T18:00:31.275Z,24.12
2019-04-10T18:03:01.221Z,25.37
2019-04-10T18:05:30.879Z,32.33
2019-04-10T18:08:00.801Z,31.27
2019-04-10T18:10:41.112Z,27.13
2019-04-10T18:13:01.242Z,29.80
2019-04-10T18:15:32.436Z,28.85
2019-04-10T18:18:03.399Z,32.30
2019-04-10T18:20:33.777Z,30.40
2019-04-10T18:23:03.146Z,29.37
2019-04-10T18:25:32.462Z,31.17
2019-04-10T18:28:01.705Z,31.17
2019-04-10T18:30:32.997Z,24.35
2019-04-10T18:33:04.696Z,32.20
2019-04-10T18:35:35.273Z,29.18
2019-04-10T18:38:05.613Z,26.17
2019-04-10T18:40:35.288Z,22.43
2019-04-10T18:43:05.968Z,30.20
2019-04-10T18:45:35.619Z,22.27
2019-04-10T18:48:06.112Z,21.93
2019-04-10T18:50:36.193Z,29.93
2019-04-10T18:53:06.745Z,27.60
2019-04-10T18:55:36.462Z,20.30
2019-04-10T18:58:08.042Z,24.80
2019-04-10T19:00:56.807Z,27.00
2019-04-10T19:03:56.228Z,32.90
2019-04-10T19:06:29.579Z,28.75
2019-04-10T19:09:07.574Z,24.10
2019-04-10T19:11:33.517Z,28.95
2019-04-10T19:14:00.648Z,30.50
2019-04-10T19:16:30.428Z,24.80
2019-04-10T19:18:59.914Z,25.68
2019-04-10T19:21:29.430Z,22.00
2019-04-10T19:23:58.655Z,22.73
2019-04-10T19:26:27.879Z,25.50
2019-04-10T19:28:57.216Z,33.43
2019-04-10T19:31:27.750Z,27.02
2019-04-10T19:33:57.209Z,25.73
2019-04-10T19:36:26.400Z,29.05
2019-04-10T19:38:55.878Z,27.63
2019-04-10T19:41:30.905Z,21.77
2019-04-10T19:43:56.869Z,24.67
2019-04-10T19:46:29.266Z,24.92
2019-04-10T19:48:59.646Z,24.75
2019-04-10T19:51:30.073Z,23.77
2019-04-10T19:54:01.561Z,30.12
2019-04-10T19:56:30.815Z,29.00
2019-04-10T19:59:00.776Z,26.10
2019-04-10T20:01:31.411Z,29.20
2019-04-10T20:04:01.915Z,23.50
2019-04-10T20:06:32.457Z,31.37
2019-04-10T20:09:01.794Z,33.40
2019-04-10T20:11:37.516Z,28.12
2019-04-10T20:14:02.243Z,21.80
2019-04-10T20:16:31.506Z,21.45
2019-04-10T20:19:01.334Z,30.57
2019-04-10T20:21:30.765Z,23.98
2019-04-10T20:24:00.602Z,31.12
2019-04-10T20:26:31.399Z,26.73
2019-04-10T20:29:00.708Z,30.88
2019-04-10T20:31:33.163Z,28.07
2019-04-10T20:34:03.286Z,29.25
2019-04-10T20:36:33.237Z,34.63
2019-04-10T20:39:03.739Z,30.12
2019-04-10T20:41:45.024Z,28.85
2019-04-10T20:44:04.507Z,37.20
2019-04-10T20:46:33.988Z,39.85
2019-04-10T20:49:03.220Z,34.80
2019-04-10T20:51:32.575Z,31.90
2019-04-10T20:54:01.752Z,30.57
2019-04-10T20:56:31.047Z,32.63
2019-04-10T20:59:01.424Z,37.00
2019-04-10T21:01:30.989Z,35.23
2019-04-10T21:04:00.869Z,29.90
2019-04-10T21:06:30.285Z,26.70
2019-04-10T21:09:01.000Z,28.83
2019-04-10T21:11:31.330Z,23.92
2019-04-10T21:14:00.610Z,26.80
2019-04-10T21:16:29.777Z,24.23
2019-04-10T21:18:58.965Z,27.05
2019-04-10T21:21:28.564Z,25.72
2019-04-10T21:23:58.043Z,24.82
2019-04-10T21:26:28.291Z,26.95
2019-04-10T21:28:57.507Z,24.52
2019-04-10T21:32:05.206Z,25.77
2019-04-10T21:34:39.103Z,32.67
2019-04-10T21:37:08.313Z,22.55
2019-04-10T21:39:38.138Z,23.85
2019-04-10T21:42:14.838Z,23.83
2019-04-10T21:44:38.481Z,20.70
2019-04-10T21:47:08.822Z,20.92
2019-04-10T21:49:38.135Z,19.57
2019-04-10T21:52:07.749Z,16.48
2019-04-10T21:54:47.945Z,16.25
2019-04-10T21:57:09.594Z,16.57
2019-04-10T22:03:04.989Z,20.55
2019-04-10T22:05:37.328Z,14.78
2019-04-10T22:08:17.169Z,15.45
2019-04-10T22:10:48.210Z,14.28
2019-04-10T22:13:17.711Z,15.03
2019-04-10T22:15:49.096Z,13.80
2019-04-10T22:18:18.357Z,11.68
2019-04-10T22:20:47.958Z,15.20
2019-04-10T22:23:18.065Z,15.45
2019-04-10T22:25:47.965Z,13.70
2019-04-10T22:28:17.434Z,14.93
2019-04-10T22:30:46.624Z,10.30
2019-04-10T22:33:16.074Z,15.20
2019-04-10T22:35:46.272Z,13.88
2019-04-10T22:38:15.882Z,14.60
2019-04-10T22:40:46.250Z,14.40
2019-04-10T22:43:15.930Z,15.45
2019-04-10T22:45:45.138Z,10.05
2019-04-10T22:48:14.697Z,15.28
2019-04-10T22:50:44.987Z,14.78
2019-04-10T22:53:15.177Z,13.15
2019-04-10T22:55:44.597Z,12.70
2019-04-10T22:58:14.855Z,13.85
2019-04-10T23:00:44.225Z,12.45
2019-04-10T23:03:13.530Z,13.53
2019-04-10T23:05:43.030Z,13.85
2019-04-10T23:08:13.308Z,17.27
2019-04-10T23:10:43.465Z,14.30
2019-04-10T23:13:13.967Z,10.80
2019-04-10T23:15:43.995Z,13.70
2019-04-10T23:18:13.260Z,12.18
2019-04-10T23:20:43.765Z,8.38
2019-04-10T23:23:13.133Z,10.40
2019-04-10T23:25:42.678Z,9.80
2019-04-10T23:28:12.128Z,16.15
2019-04-10T23:30:41.419Z,16.07
2019-04-10T23:33:10.590Z,14.38
2019-04-10T23:35:39.772Z,12.88
2019-04-10T23:38:09.217Z,11.80
2019-04-10T23:40:38.348Z,15.10
2019-04-10T23:43:13.575Z,10.05
2019-04-10T23:45:39.761Z,9.45
2019-04-10T23:48:09.013Z,12.28
2019-04-10T23:50:38.609Z,15.08
2019-04-10T23:53:08.609Z,11.48
2019-04-10T23:55:37.916Z,9.88
2019-04-10T23:58:07.704Z,12.58
